createdAt,value
2019-03-04T00:01:14.618Z,8.50
2019-03-04T00:07:12.638Z,8.40
2019-03-04T00:09:41.431Z,8.30
2019-03-04T00:12:09.886Z,8.30
2019-03-04T00:14:38.409Z,8.20
2019-03-04T00:17:06.838Z,8.20
2019-03-04T00:19:35.267Z,8.20
2019-03-04T00:25:32.507Z,8.10
2019-03-04T00:28:01.033Z,8.00
2019-03-04T00:30:29.458Z,8.20
2019-03-04T00:32:57.881Z,8.20
2019-03-04T00:35:26.674Z,8.50
2019-03-04T00:37:55.207Z,8.70
2019-03-04T00:43:52.091Z,8.70
2019-03-04T00:46:20.553Z,8.60
2019-03-04T00:48:48.984Z,8.50
2019-03-04T00:54:46.518Z,8.40
2019-03-04T00:57:14.979Z,8.20
2019-03-04T00:59:43.684Z,8.20
2019-03-04T01:02:12.114Z,8.10
2019-03-04T01:08:08.920Z,8.10
2019-03-04T01:10:37.691Z,8.10
2019-03-04T01:13:06.127Z,8.10
2019-03-04T01:15:34.563Z,8.10
2019-03-04T01:21:32.120Z,8.10
2019-03-04T01:24:00.591Z,8.00
2019-03-04T01:26:29.025Z,8.00
2019-03-04T01:28:57.778Z,7.90
2019-03-04T01:31:26.226Z,7.80
2019-03-04T01:37:35.840Z,7.80
2019-03-04T01:40:12.746Z,7.70
2019-03-04T01:42:41.759Z,7.60
2019-03-04T01:48:51.107Z,7.50
2019-03-04T01:51:19.537Z,7.40
2019-03-04T01:57:16.503Z,7.40
2019-03-04T01:59:45.146Z,7.40
2019-03-04T02:02:13.570Z,7.40
2019-03-04T02:04:42.007Z,7.40
2019-03-04T02:10:39.787Z,7.40
2019-03-04T02:13:08.247Z,7.40
2019-03-04T02:15:36.750Z,7.40
2019-03-04T02:18:05.257Z,7.40
2019-03-04T02:20:33.723Z,7.40
2019-03-04T02:26:43.642Z,7.40
2019-03-04T02:29:12.074Z,7.40
2019-03-04T02:31:40.575Z,7.40
2019-03-04T02:34:09.030Z,7.30
2019-03-04T02:40:18.742Z,7.20
2019-03-04T02:42:47.227Z,7.20
2019-03-04T02:45:17.603Z,7.20
2019-03-04T02:47:46.802Z,7.20
2019-03-04T02:50:16.277Z,7.20
2019-03-04T02:52:45.185Z,7.10
2019-03-04T02:55:16.115Z,7.20
2019-03-04T02:57:44.945Z,7.20
2019-03-04T03:00:18.487Z,7.20
2019-03-04T03:02:47.004Z,7.30
2019-03-04T03:05:15.676Z,7.20
2019-03-04T03:07:44.131Z,7.20
2019-03-04T03:10:14.376Z,7.10
2019-03-04T03:12:42.872Z,7.10
2019-03-04T03:15:13.118Z,7.10
2019-03-04T03:21:10.571Z,7.00
2019-03-04T03:23:39.024Z,7.00
2019-03-04T03:26:07.467Z,6.80
2019-03-04T03:28:35.918Z,6.80
2019-03-04T03:31:04.579Z,6.80
2019-03-04T03:33:33.016Z,6.80
2019-03-04T03:39:30.265Z,6.80
2019-03-04T03:41:59.150Z,6.70
2019-03-04T03:44:27.575Z,6.60
2019-03-04T03:46:56.007Z,6.60
2019-03-04T03:49:24.489Z,6.50
2019-03-04T03:55:33.929Z,6.70
2019-03-04T03:58:02.363Z,6.60
2019-03-04T04:00:30.803Z,6.60
2019-03-04T04:02:59.356Z,6.70
2019-03-04T04:08:56.471Z,6.70
2019-03-04T04:11:25.317Z,6.70
2019-03-04T04:13:53.742Z,6.70
2019-03-04T04:16:22.694Z,6.70
2019-03-04T04:18:51.124Z,6.70
2019-03-04T04:21:19.554Z,6.70
2019-03-04T04:27:16.513Z,6.80
2019-03-04T04:29:45.400Z,6.90
2019-03-04T04:32:13.827Z,6.90
2019-03-04T04:34:42.266Z,6.90
2019-03-04T04:37:11.056Z,6.80
2019-03-04T04:39:39.572Z,6.80
2019-03-04T04:45:13.318Z,6.70
2019-03-04T04:47:43.147Z,6.60
2019-03-04T04:50:14.746Z,6.60
2019-03-04T04:52:43.191Z,6.60
2019-03-04T04:55:11.715Z,6.50
2019-03-04T05:01:21.497Z,6.50
2019-03-04T05:03:49.988Z,6.40
2019-03-04T05:06:18.416Z,6.50
2019-03-04T05:08:46.864Z,6.50
2019-03-04T05:11:15.290Z,6.40
2019-03-04T05:13:43.798Z,6.40
2019-03-04T05:16:12.263Z,6.40
2019-03-04T05:18:40.699Z,6.30
2019-03-04T05:21:09.128Z,6.30
2019-03-04T05:23:37.740Z,6.30
2019-03-04T05:26:06.167Z,6.30
2019-03-04T05:28:34.863Z,6.30
2019-03-04T05:31:03.655Z,6.30
2019-03-04T05:33:32.171Z,6.20
2019-03-04T05:36:00.672Z,6.10
2019-03-04T05:41:57.784Z,6.00
2019-03-04T05:44:26.219Z,5.90
2019-03-04T05:50:27.021Z,6.00
2019-03-04T05:52:55.471Z,6.10
2019-03-04T05:55:24.075Z,6.10
2019-03-04T05:57:52.509Z,6.10
2019-03-04T06:00:23.380Z,6.20
2019-03-04T06:03:00.620Z,6.20
2019-03-04T06:05:29.079Z,6.20
2019-03-04T06:07:59.143Z,6.20
2019-03-04T06:10:27.574Z,6.30
2019-03-04T06:12:56.202Z,6.30
2019-03-04T06:15:24.621Z,6.30
2019-03-04T06:21:21.647Z,6.30
2019-03-04T06:23:50.083Z,6.40
2019-03-04T06:26:18.859Z,6.40
2019-03-04T06:28:47.292Z,6.40
2019-03-04T06:31:15.714Z,6.40
2019-03-04T06:33:44.173Z,6.40
2019-03-04T06:36:12.606Z,6.50
2019-03-04T06:42:09.596Z,6.50
2019-03-04T06:44:38.055Z,6.50
2019-03-04T06:47:06.495Z,6.60
2019-03-04T06:49:34.926Z,7.30
2019-03-04T06:52:03.454Z,8.20
2019-03-04T06:58:13.139Z,9.70
2019-03-04T07:04:29.008Z,10.70
2019-03-04T07:10:25.806Z,11.40
2019-03-04T07:12:54.585Z,11.70
2019-03-04T07:15:23.020Z,11.80
2019-03-04T07:17:51.656Z,12.20
2019-03-04T07:20:21.026Z,12.30
2019-03-04T07:22:49.464Z,12.30
2019-03-04T07:25:17.951Z,12.40
2019-03-04T07:27:46.395Z,12.50
2019-03-04T07:30:17.319Z,12.60
2019-03-04T07:32:46.880Z,12.50
2019-03-04T07:35:15.485Z,12.40
2019-03-04T07:37:43.919Z,12.40
2019-03-04T07:40:18.127Z,12.40
2019-03-04T07:42:46.843Z,12.30
2019-03-04T07:45:15.414Z,12.20
2019-03-04T07:47:43.887Z,12.10
2019-03-04T07:50:12.394Z,12.20
2019-03-04T07:52:40.815Z,12.30
2019-03-04T07:58:38.546Z,12.40
2019-03-04T08:04:35.571Z,12.50
2019-03-04T08:10:32.833Z,12.50
2019-03-04T08:13:13.379Z,12.40
2019-03-04T08:15:42.691Z,12.40
2019-03-04T08:18:11.195Z,12.50
2019-03-04T08:20:40.231Z,12.50
2019-03-04T08:23:10.117Z,12.60
2019-03-04T08:25:38.778Z,12.60
2019-03-04T08:31:36.341Z,12.80
2019-03-04T08:34:04.878Z,12.90
2019-03-04T08:36:33.616Z,12.90
2019-03-04T08:39:02.119Z,13.00
2019-03-04T08:44:59.239Z,13.00
2019-03-04T08:47:27.710Z,13.00
2019-03-04T08:53:37.082Z,13.10
2019-03-04T08:56:05.515Z,13.00
2019-03-04T08:58:34.449Z,13.00
2019-03-04T09:01:03.261Z,12.90
2019-03-04T09:03:31.701Z,12.70
2019-03-04T09:06:00.390Z,12.50
2019-03-04T09:08:28.846Z,12.40
2019-03-04T09:10:57.278Z,12.20
2019-03-04T09:13:25.714Z,12.00
2019-03-04T09:15:54.542Z,11.80
2019-03-04T09:22:03.914Z,11.40
2019-03-04T09:24:32.363Z,11.20
2019-03-04T09:27:01.148Z,11.00
2019-03-04T09:29:29.604Z,10.90
2019-03-04T09:31:58.040Z,10.80
2019-03-04T09:37:55.382Z,10.80
2019-03-04T09:40:29.241Z,10.70
2019-03-04T09:42:58.622Z,10.60
2019-03-04T09:45:27.223Z,10.50
2019-03-04T09:47:55.768Z,10.40
2019-03-04T09:50:26.041Z,10.30
2019-03-04T09:52:54.470Z,10.20
2019-03-04T09:55:23.286Z,10.00
2019-03-04T09:57:51.811Z,9.80
2019-03-04T10:04:04.231Z,9.70
2019-03-04T10:06:38.790Z,9.60
2019-03-04T10:09:47.007Z,9.50
2019-03-04T10:12:27.647Z,9.30
2019-03-04T10:15:11.182Z,9.20
2019-03-04T10:21:30.219Z,9.00
2019-03-04T10:24:16.754Z,8.70
2019-03-04T10:26:57.130Z,8.50
2019-03-04T10:29:40.703Z,8.40
2019-03-04T10:36:03.095Z,8.30
2019-03-04T10:38:52.869Z,8.10
2019-03-04T10:41:44.946Z,8.00
2019-03-04T10:47:54.747Z,7.80
2019-03-04T10:50:23.174Z,7.60
2019-03-04T10:52:51.676Z,7.50
2019-03-04T10:58:24.848Z,7.50
2019-03-04T11:00:53.283Z,7.50
2019-03-04T11:03:21.746Z,7.60
2019-03-04T11:05:50.176Z,7.60
2019-03-04T11:08:18.610Z,7.60
2019-03-04T11:10:47.335Z,7.60
2019-03-04T11:16:57.170Z,7.50
2019-03-04T11:22:54.884Z,7.40
2019-03-04T11:25:23.327Z,7.50
2019-03-04T11:27:52.671Z,7.50
2019-03-04T11:30:29.799Z,7.50
2019-03-04T11:32:58.643Z,7.50
2019-03-04T11:35:27.069Z,7.60
2019-03-04T11:41:24.360Z,7.60
2019-03-04T11:43:53.167Z,7.60
2019-03-04T11:46:23.808Z,7.60
2019-03-04T11:48:52.420Z,7.70
2019-03-04T11:51:21.122Z,7.70
2019-03-04T11:53:49.872Z,7.80
2019-03-04T11:56:18.313Z,7.80
2019-03-04T11:58:46.768Z,7.90
2019-03-04T12:01:16.979Z,8.00
2019-03-04T12:07:14.496Z,8.00
2019-03-04T12:09:43.036Z,8.10
2019-03-04T12:12:11.463Z,8.10
2019-03-04T12:18:08.968Z,8.10
2019-03-04T12:20:37.550Z,8.20
2019-03-04T12:23:06.322Z,8.20
2019-03-04T12:25:34.822Z,8.30
2019-03-04T12:28:03.547Z,8.30
2019-03-04T12:30:32.289Z,8.30
2019-03-04T12:33:01.096Z,8.40
2019-03-04T12:35:29.547Z,8.40
2019-03-04T12:37:58.251Z,8.40
2019-03-04T12:43:54.906Z,8.50
2019-03-04T12:46:23.449Z,8.60
2019-03-04T12:48:51.884Z,8.50
2019-03-04T12:54:49.303Z,8.50
2019-03-04T12:57:19.390Z,8.50
2019-03-04T12:59:47.822Z,8.40
2019-03-04T13:02:16.254Z,8.50
2019-03-04T13:04:44.710Z,8.50
2019-03-04T13:07:13.219Z,8.50
2019-03-04T13:09:41.652Z,8.50
2019-03-04T13:12:10.112Z,8.40
2019-03-04T13:14:38.848Z,8.40
2019-03-04T13:17:07.335Z,8.40
2019-03-04T13:19:35.802Z,8.40
2019-03-04T13:22:08.424Z,8.50
2019-03-04T13:28:08.341Z,8.60
2019-03-04T13:34:02.382Z,8.80
2019-03-04T13:36:30.869Z,8.80
2019-03-04T13:42:40.647Z,8.90
2019-03-04T13:48:50.203Z,9.00
2019-03-04T13:51:18.702Z,9.10
2019-03-04T13:53:47.130Z,9.20
2019-03-04T13:56:15.585Z,9.20
2019-03-04T13:58:44.013Z,9.30
2019-03-04T14:01:12.445Z,9.30
2019-03-04T14:07:09.631Z,9.50
2019-03-04T14:09:38.062Z,9.50
2019-03-04T14:15:23.528Z,9.70
2019-03-04T14:17:51.986Z,9.90
2019-03-04T14:24:01.740Z,10.10
2019-03-04T14:26:30.175Z,10.40
2019-03-04T14:28:58.678Z,10.60
2019-03-04T14:31:27.171Z,10.80
2019-03-04T14:33:55.979Z,11.10
2019-03-04T14:36:24.413Z,11.40
2019-03-04T14:42:21.852Z,11.50
2019-03-04T14:44:50.607Z,11.30
2019-03-04T14:47:19.056Z,11.10
2019-03-04T14:49:47.483Z,10.90
2019-03-04T14:52:16.267Z,10.80
2019-03-04T14:58:26.100Z,10.70
2019-03-04T15:00:54.897Z,10.60
2019-03-04T15:11:48.427Z,10.00
2019-03-04T15:17:45.222Z,9.60
2019-03-04T15:23:42.754Z,9.50
2019-03-04T15:29:15.711Z,9.80
2019-03-04T15:31:44.167Z,10.10
2019-03-04T15:34:12.598Z,10.30
2019-03-04T15:40:14.999Z,10.40
2019-03-04T15:42:43.999Z,10.10
2019-03-04T15:48:53.632Z,10.40
2019-03-04T15:51:22.062Z,10.70
2019-03-04T15:53:50.909Z,10.50
2019-03-04T15:56:19.390Z,10.30
2019-03-04T16:02:28.810Z,9.80
2019-03-04T16:04:57.238Z,9.60
2019-03-04T16:07:25.987Z,9.50
2019-03-04T16:09:54.447Z,9.40
2019-03-04T16:12:23.214Z,9.30
2019-03-04T16:14:51.714Z,9.20
2019-03-04T16:17:20.269Z,9.20
2019-03-04T16:19:48.759Z,9.30
2019-03-04T16:25:46.474Z,9.20
2019-03-04T16:28:17.596Z,9.20
2019-03-04T16:34:27.402Z,9.10
2019-03-04T16:36:55.839Z,8.90
2019-03-04T16:39:24.334Z,8.90
2019-03-04T16:45:22.670Z,8.70
2019-03-04T16:47:51.900Z,8.60
2019-03-04T16:50:26.366Z,8.50
2019-03-04T16:53:00.762Z,8.50
2019-03-04T16:55:29.194Z,8.50
2019-03-04T16:57:57.628Z,8.50
2019-03-04T17:00:26.250Z,8.50
2019-03-04T17:06:36.127Z,8.40
2019-03-04T17:12:45.639Z,8.40
2019-03-04T17:15:16.984Z,8.40
2019-03-04T17:21:14.264Z,8.40
2019-03-04T17:27:12.011Z,8.40
2019-03-04T17:33:09.490Z,8.40
2019-03-04T17:35:38.082Z,8.40
2019-03-04T17:38:06.578Z,8.40
2019-03-04T17:40:35.079Z,8.40
2019-03-04T17:46:32.416Z,8.50
2019-03-04T17:49:00.879Z,8.50
2019-03-04T17:51:29.298Z,8.50
2019-03-04T17:53:57.727Z,8.50
2019-03-04T17:59:55.236Z,8.60
2019-03-04T18:02:23.693Z,8.70
2019-03-04T18:04:52.118Z,8.70
2019-03-04T18:07:20.548Z,8.80
2019-03-04T18:09:48.995Z,8.80
2019-03-04T18:12:17.470Z,8.80
2019-03-04T18:14:46.066Z,8.80
2019-03-04T18:17:14.967Z,8.90
2019-03-04T18:23:24.647Z,8.90
2019-03-04T18:26:02.059Z,8.90
2019-03-04T18:28:36.515Z,8.90
2019-03-04T18:31:14.005Z,9.00
2019-03-04T18:33:51.766Z,8.90
2019-03-04T18:40:19.868Z,8.90
2019-03-04T18:46:44.506Z,8.90
2019-03-04T18:49:13.158Z,8.90
2019-03-04T18:55:10.635Z,8.90
2019-03-04T19:01:08.454Z,8.80
2019-03-04T19:03:36.927Z,8.90
2019-03-04T19:09:46.835Z,8.80
2019-03-04T19:15:44.232Z,8.70
2019-03-04T19:21:54.044Z,8.70
2019-03-04T19:28:03.990Z,8.60
2019-03-04T19:30:32.520Z,8.50
2019-03-04T19:36:29.714Z,8.50
2019-03-04T19:38:59.292Z,8.40
2019-03-04T19:41:27.987Z,8.30
2019-03-04T19:43:56.416Z,8.30
2019-03-04T19:49:53.566Z,8.20
2019-03-04T19:52:22.167Z,8.30
2019-03-04T19:54:50.743Z,8.30
2019-03-04T19:57:19.168Z,8.20
2019-03-04T19:59:47.757Z,8.20
2019-03-04T20:02:16.974Z,8.20
2019-03-04T20:08:14.282Z,8.20
2019-03-04T20:10:43.086Z,8.20
2019-03-04T20:13:11.754Z,8.20
2019-03-04T20:15:40.197Z,8.30
2019-03-04T20:18:08.670Z,8.30
2019-03-04T20:20:37.238Z,8.40
2019-03-04T20:23:06.190Z,8.40
2019-03-04T20:25:35.307Z,8.40
2019-03-04T20:28:04.085Z,8.40
2019-03-04T20:30:32.894Z,8.30
2019-03-04T20:33:01.416Z,8.30
2019-03-04T20:35:29.845Z,8.40
2019-03-04T20:41:02.867Z,8.30
2019-03-04T20:43:31.410Z,8.30
2019-03-04T20:45:59.906Z,8.40
2019-03-04T20:51:57.330Z,8.40
2019-03-04T20:54:26.045Z,8.40
2019-03-04T21:00:37.035Z,8.30
2019-03-04T21:03:06.918Z,6.80
2019-03-04T21:05:37.119Z,6.30
2019-03-04T21:08:06.621Z,6.00
2019-03-04T21:10:35.483Z,5.70
2019-03-04T21:13:08.964Z,5.60
2019-03-04T21:15:37.717Z,5.50
2019-03-04T21:18:06.357Z,5.60
2019-03-04T21:20:35.097Z,5.50
2019-03-04T21:26:44.658Z,5.50
2019-03-04T21:29:31.435Z,5.50
2019-03-04T21:32:12.094Z,5.50
2019-03-04T21:35:01.655Z,5.40
2019-03-04T21:37:36.495Z,5.50
2019-03-04T21:40:10.700Z,5.50
2019-03-04T21:42:51.181Z,5.50
2019-03-04T21:45:26.887Z,5.50
2019-03-04T21:51:37.650Z,5.50
2019-03-04T21:53:57.718Z,5.40
2019-03-04T21:56:29.639Z,5.40
2019-03-04T21:58:58.070Z,5.50
2019-03-04T22:04:43.875Z,5.50
2019-03-04T22:07:15.367Z,5.60
2019-03-04T22:09:44.047Z,5.50
2019-03-04T22:12:13.995Z,5.50
2019-03-04T22:15:19.773Z,5.50
2019-03-04T22:20:24.291Z,5.50
2019-03-04T22:22:53.063Z,5.40
2019-03-04T22:25:21.880Z,5.30
2019-03-04T22:27:50.324Z,5.20
2019-03-04T22:30:19.872Z,5.10
2019-03-04T22:32:48.556Z,5.00
2019-03-04T22:35:17.764Z,5.00
2019-03-04T22:37:46.619Z,5.00
2019-03-04T22:40:20.106Z,5.00
2019-03-04T22:42:48.850Z,4.90
2019-03-04T22:45:19.190Z,4.90
2019-03-04T22:47:49.126Z,4.80
2019-03-04T22:50:21.213Z,4.80
2019-03-04T22:52:49.724Z,4.80
2019-03-04T22:55:21.746Z,4.90
2019-03-04T22:57:50.356Z,4.80
2019-03-04T23:00:43.193Z,4.80
2019-03-04T23:03:11.902Z,4.80
2019-03-04T23:05:40.335Z,4.70
2019-03-04T23:08:08.931Z,4.70
2019-03-04T23:10:40.463Z,4.80
2019-03-04T23:13:12.044Z,4.80
2019-03-04T23:15:40.964Z,4.80
2019-03-04T23:18:09.591Z,4.80
2019-03-04T23:20:38.063Z,4.80
2019-03-04T23:23:06.498Z,4.90
2019-03-04T23:25:35.363Z,4.90
2019-03-04T23:28:04.215Z,4.90
2019-03-04T23:30:32.823Z,4.90
2019-03-04T23:33:01.615Z,4.90
2019-03-04T23:35:30.111Z,4.90
2019-03-04T23:37:58.869Z,4.90
2019-03-04T23:40:27.806Z,4.90
2019-03-04T23:42:56.407Z,4.90
2019-03-04T23:47:53.223Z,5.00
2019-03-04T23:50:23.540Z,5.00
2019-03-04T23:52:52.208Z,5.00
2019-03-04T23:55:21.515Z,5.00
2019-03-04T23:57:50.183Z,5.00
